Terminal Aerodrome Forecast
Issued by NWS

Home | Current Version | Previous Version | Text Only | Print | Product List | Glossary On
Versions: 1 2 3 4 5 6 7 8 9 10 11 12 13 14 15 16 17 18 19 20 21 22 23 24 25 26 27 28 29 30 31 32
000
FTUS41 KRNK 301134
TAFLWB
TAF
KLWB 301134Z 3012/3112 30009G18KT 5SM -SHSN BR SCT012 OVC025
      TEMPO 3012/3016 2SM -SN OVC012
     FM301600 30017G27KT P6SM -SHSN OVC015
     FM302200 30008G16KT P6SM BKN023
     FM310200 29007KT P6SM SCT023=

USA.gov is the U.S. government's official web portal to all federal, state and local government web resources and services.